Time;durP1;ratioP1;P1;durP2;ratioP2;P2;SDS_P1;SDS_P2;PMS_P1;PMS_P2;Temp;Humidity;BMP_temperature;BMP_pressure;BME280_temperature;BME280_humidity;BME280_pressure;Samples;Min_cycle;Max_cycle;Signal;HPM_P1;HPM_P2
2023/01/05 00:01:21;;;;;;;6.67;2.23;;;10.00;99.90;;;;;;5025344;28;20205;-74
2023/01/05 00:03:47;;;;;;;7.60;1.53;;;10.00;99.90;;;;;;5011855;28;20243;-73
2023/01/05 00:06:16;;;;;;;6.00;2.23;;;10.00;99.90;;;;;;5014482;28;20348;-72
2023/01/05 00:08:42;;;;;;;9.27;2.50;;;10.00;99.90;;;;;;5013629;28;20508;-73
2023/01/05 00:22:29;;;;;;;9.03;2.83;;;10.10;99.90;;;;;;5014419;28;20633;-73
2023/01/05 00:25:05;;;;;;;7.00;2.13;;;10.10;99.90;;;;;;5009442;28;20209;-71
2023/01/05 00:27:31;;;;;;;9.30;2.63;;;10.10;99.90;;;;;;5001493;28;20209;-73
2023/01/05 00:29:57;;;;;;;10.53;2.47;;;10.10;99.90;;;;;;5009242;28;20239;-73
2023/01/05 00:32:23;;;;;;;7.77;2.33;;;10.10;99.90;;;;;;5014121;28;20232;-73
2023/01/05 00:34:49;;;;;;;8.83;2.33;;;10.20;99.90;;;;;;5014061;28;20213;-71
2023/01/05 00:37:16;;;;;;;7.60;1.90;;;10.10;99.90;;;;;;5012818;28;20560;-73
2023/01/05 00:39:41;;;;;;;7.30;2.47;;;10.10;99.90;;;;;;5013287;28;20299;-72
2023/01/05 00:42:07;;;;;;;9.87;2.20;;;10.10;99.90;;;;;;5013065;28;20208;-72
2023/01/05 00:44:33;;;;;;;11.37;2.27;;;10.10;99.90;;;;;;5013702;28;20233;-73
2023/01/05 00:46:58;;;;;;;10.67;2.50;;;10.20;99.90;;;;;;5011360;28;20225;-73
2023/01/05 00:49:24;;;;;;;10.07;2.90;;;10.20;99.90;;;;;;5011603;28;20213;-73
2023/01/05 00:51:49;;;;;;;5.07;1.50;;;10.20;99.90;;;;;;5012194;28;20240;-73
2023/01/05 00:54:15;;;;;;;9.70;2.90;;;10.20;99.90;;;;;;5013656;28;20256;-71
2023/01/05 00:56:41;;;;;;;6.70;2.27;;;10.20;99.90;;;;;;5012394;28;20229;-73
2023/01/05 00:59:06;;;;;;;9.00;2.20;;;10.20;99.90;;;;;;5010388;28;20220;-73
2023/01/05 01:01:32;;;;;;;11.73;2.33;;;10.20;99.90;;;;;;5010237;28;20205;-71
2023/01/05 01:03:57;;;;;;;9.47;2.43;;;10.20;99.90;;;;;;5010791;28;20251;-73
2023/01/05 01:06:23;;;;;;;9.73;2.87;;;10.20;99.90;;;;;;5011969;28;20559;-72
2023/01/05 01:08:49;;;;;;;11.17;2.60;;;10.10;99.90;;;;;;5007574;28;20178;-73
2023/01/05 01:11:15;;;;;;;8.93;3.03;;;10.10;99.90;;;;;;5010503;28;20208;-72
2023/01/05 01:13:43;;;;;;;6.77;2.37;;;10.20;99.90;;;;;;5011984;28;20205;-74
2023/01/05 01:16:11;;;;;;;13.27;3.20;;;10.20;99.90;;;;;;5011572;28;20213;-73
2023/01/05 01:18:37;;;;;;;9.57;2.97;;;10.20;99.90;;;;;;5011985;28;20242;-73
2023/01/05 01:21:03;;;;;;;11.27;2.60;;;10.20;99.90;;;;;;5010524;28;20208;-73
2023/01/05 01:23:30;;;;;;;13.40;2.83;;;10.20;99.90;;;;;;5011666;28;20700;-73
2023/01/05 01:25:55;;;;;;;9.30;2.00;;;10.20;99.90;;;;;;5011388;28;20283;-73
2023/01/05 01:28:24;;;;;;;9.17;2.67;;;10.20;99.90;;;;;;5010228;28;20205;-73
2023/01/05 01:30:50;;;;;;;9.73;2.47;;;10.20;99.90;;;;;;5010940;28;20205;-73
2023/01/05 01:33:15;;;;;;;8.97;2.33;;;10.20;99.90;;;;;;5010164;28;20637;-70
2023/01/05 01:35:41;;;;;;;9.77;2.43;;;10.20;99.90;;;;;;5010591;28;20201;-72
2023/01/05 01:38:07;;;;;;;8.50;2.80;;;10.20;99.90;;;;;;5011245;28;20209;-73
2023/01/05 01:40:41;;;;;;;6.53;2.37;;;10.20;99.90;;;;;;5006434;28;20239;-73
2023/01/05 01:43:36;;;;;;;10.53;3.03;;;10.10;99.90;;;;;;5007223;28;20239;-70
2023/01/05 01:46:02;;;;;;;10.73;2.20;;;10.10;99.90;;;;;;5001414;28;20753;-72
2023/01/05 01:48:27;;;;;;;6.67;1.93;;;10.10;99.90;;;;;;5010078;28;20185;-72
2023/01/05 01:50:55;;;;;;;9.13;1.83;;;10.10;99.90;;;;;;5010592;28;20201;-71
2023/01/05 01:53:28;;;;;;;11.00;2.53;;;10.10;99.90;;;;;;5011969;28;20207;-73
2023/01/05 01:55:56;;;;;;;13.30;2.53;;;10.10;99.90;;;;;;5007975;28;20219;-73
2023/01/05 01:58:25;;;;;;;9.07;2.20;;;10.10;99.90;;;;;;5011361;28;20272;-74
2023/01/05 02:00:51;;;;;;;7.57;2.43;;;10.10;99.90;;;;;;5007958;28;20300;-73
2023/01/05 02:03:17;;;;;;;11.50;2.93;;;10.20;99.90;;;;;;5010787;28;20264;-73
2023/01/05 02:05:43;;;;;;;9.60;2.00;;;10.20;99.90;;;;;;5011417;28;20268;-73
2023/01/05 02:08:13;;;;;;;10.40;2.73;;;10.20;99.90;;;;;;5004135;28;20779;-71
2023/01/05 02:10:48;;;;;;;6.47;2.33;;;10.30;99.90;;;;;;5009852;28;20216;-74
2023/01/05 02:13:43;;;;;;;7.90;1.87;;;10.30;99.90;;;;;;5009856;28;20239;-71
2023/01/05 02:16:32;;;;;;;10.17;2.13;;;10.30;99.90;;;;;;5009675;28;20220;-73
2023/01/05 02:19:24;;;;;;;6.07;2.03;;;10.30;99.90;;;;;;5008917;28;20239;-73
2023/01/05 02:22:26;;;;;;;6.63;2.33;;;10.30;99.90;;;;;;5001009;28;20688;-74
2023/01/05 02:25:10;;;;;;;7.73;2.23;;;10.30;99.90;;;;;;4998997;28;20201;-73
2023/01/05 02:28:13;;;;;;;7.87;2.10;;;10.30;99.90;;;;;;5007371;28;20231;-74
2023/01/05 02:30:59;;;;;;;6.57;2.37;;;10.20;99.90;;;;;;5019971;28;20205;-73
2023/01/05 02:34:03;;;;;;;9.50;2.30;;;10.20;99.90;;;;;;5009062;28;20212;-73
2023/01/05 02:36:54;;;;;;;9.07;2.70;;;10.20;99.90;;;;;;5007405;28;20291;-73
2023/01/05 02:39:47;;;;;;;10.43;2.97;;;10.20;99.90;;;;;;4994692;28;20626;-72
2023/01/05 02:42:19;;;;;;;7.70;1.93;;;10.20;99.90;;;;;;5005780;28;20235;-72
2023/01/05 02:44:45;;;;;;;10.87;2.67;;;10.20;99.90;;;;;;5010976;28;20184;-73
2023/01/05 02:47:28;;;;;;;8.50;1.90;;;10.20;99.90;;;;;;5010064;28;20301;-73
2023/01/05 02:50:05;;;;;;;8.10;2.00;;;10.20;99.90;;;;;;5002313;28;20201;-74
2023/01/05 02:52:56;;;;;;;11.07;2.97;;;10.20;99.90;;;;;;5008887;28;20659;-73
2023/01/05 02:55:45;;;;;;;7.80;2.00;;;10.30;99.90;;;;;;5010190;28;20213;-73
2023/01/05 02:58:24;;;;;;;9.47;2.40;;;10.30;99.90;;;;;;5009363;28;20228;-72
2023/01/05 03:00:54;;;;;;;9.30;2.97;;;10.30;99.90;;;;;;5007685;28;20684;-73
2023/01/05 03:03:42;;;;;;;8.53;1.93;;;10.30;99.90;;;;;;5008740;28;20263;-73
2023/01/05 03:06:14;;;;;;;7.90;2.07;;;10.30;99.90;;;;;;5010500;28;20282;-73
2023/01/05 03:08:51;;;;;;;8.33;2.37;;;10.30;99.90;;;;;;5010923;28;20793;-73
2023/01/05 03:14:16;;;;;;;5.97;1.87;;;10.20;99.90;;;;;;5010159;28;20220;-73
2023/01/05 03:16:43;;;;;;;6.13;1.93;;;10.20;99.90;;;;;;5008663;28;20375;-74
2023/01/05 03:37:07;;;;;;;7.37;1.80;;;10.30;99.90;;;;;;5012658;28;20235;-73
2023/01/05 03:39:35;;;;;;;7.87;1.83;;;10.30;99.90;;;;;;5006379;28;20220;-73
2023/01/05 03:42:01;;;;;;;7.97;2.00;;;10.30;99.90;;;;;;5010076;28;20862;-73
2023/01/05 03:44:27;;;;;;;7.80;1.83;;;10.30;99.90;;;;;;5010235;28;20344;-73
2023/01/05 03:46:52;;;;;;;9.10;1.57;;;10.30;99.90;;;;;;5008322;28;20315;-72
2023/01/05 03:49:18;;;;;;;4.73;1.73;;;10.30;99.90;;;;;;5020898;23;20201;-74
2023/01/05 03:51:43;;;;;;;6.57;2.43;;;10.30;99.90;;;;;;5007942;28;20209;-76
2023/01/05 03:54:09;;;;;;;5.13;1.50;;;10.30;99.90;;;;;;5009863;28;20181;-73
2023/01/05 03:56:35;;;;;;;6.60;1.70;;;10.30;99.90;;;;;;5012512;28;20647;-73
2023/01/05 03:59:00;;;;;;;5.80;2.10;;;10.30;99.90;;;;;;5004716;28;20229;-73
2023/01/05 04:01:26;;;;;;;6.20;1.77;;;10.30;99.90;;;;;;4984062;28;20289;-73
2023/01/05 04:03:52;;;;;;;7.33;1.80;;;10.30;99.90;;;;;;4985009;28;20209;-71
2023/01/05 04:06:17;;;;;;;9.30;2.20;;;10.30;99.90;;;;;;4982409;28;20585;-73
2023/01/05 04:08:43;;;;;;;7.33;1.50;;;10.30;99.90;;;;;;4986328;28;20217;-73
2023/01/05 04:11:21;;;;;;;5.30;1.80;;;10.30;99.90;;;;;;4980880;28;20206;-76
2023/01/05 04:13:46;;;;;;;8.27;1.80;;;10.30;99.90;;;;;;4979569;28;20632;-70
2023/01/05 04:16:13;;;;;;;6.97;1.33;;;10.30;99.90;;;;;;4983846;28;20219;-73
2023/01/05 04:18:38;;;;;;;3.73;2.10;;;10.30;99.90;;;;;;4985491;28;20237;-73
2023/01/05 04:21:05;;;;;;;6.07;1.67;;;10.30;99.90;;;;;;4978920;28;20645;-74
2023/01/05 04:23:31;;;;;;;7.23;2.10;;;10.30;99.90;;;;;;4984170;28;20288;-73
2023/01/05 04:25:57;;;;;;;6.23;1.87;;;10.10;99.90;;;;;;4983019;28;20213;-73
2023/01/05 04:28:23;;;;;;;4.37;1.73;;;10.00;99.90;;;;;;4983100;28;20301;-73
2023/01/05 04:30:50;;;;;;;8.30;2.30;;;10.00;99.90;;;;;;4979340;28;20214;-73
2023/01/05 04:33:16;;;;;;;4.97;1.80;;;10.00;99.90;;;;;;4982931;28;20514;-72
2023/01/05 04:35:42;;;;;;;10.33;2.10;;;10.00;99.90;;;;;;4983936;28;20700;-73
2023/01/05 04:38:07;;;;;;;3.93;1.30;;;10.00;99.90;;;;;;4981112;28;20213;-73
2023/01/05 04:40:33;;;;;;;5.97;1.57;;;10.00;99.90;;;;;;4983151;28;20741;-73
2023/01/05 04:42:59;;;;;;;8.83;2.10;;;10.00;99.90;;;;;;4980061;28;20207;-69
2023/01/05 04:45:25;;;;;;;3.67;1.70;;;10.00;99.90;;;;;;4996179;28;20182;-73
2023/01/05 04:47:51;;;;;;;2.97;1.23;;;10.10;99.90;;;;;;4984656;28;20178;-73
2023/01/05 04:50:17;;;;;;;11.57;2.20;;;10.10;99.90;;;;;;4982521;28;20626;-74
2023/01/05 04:52:43;;;;;;;4.10;1.70;;;10.10;99.90;;;;;;4981343;28;20206;-73
2023/01/05 04:55:09;;;;;;;4.77;1.57;;;10.10;99.90;;;;;;4981160;28;20209;-72
2023/01/05 04:57:35;;;;;;;3.40;1.60;;;10.10;99.90;;;;;;4984821;28;20213;-73
2023/01/05 05:00:01;;;;;;;2.37;1.27;;;10.10;99.90;;;;;;4981706;28;20209;-73
2023/01/05 05:02:27;;;;;;;3.47;1.10;;;10.00;99.90;;;;;;4983469;28;20725;-73
2023/01/05 05:04:52;;;;;;;3.10;1.43;;;9.90;99.90;;;;;;4983782;28;20206;-74
2023/01/05 05:07:18;;;;;;;4.70;1.63;;;9.90;99.90;;;;;;4981788;28;20198;-73
2023/01/05 05:09:44;;;;;;;2.93;1.20;;;9.80;99.90;;;;;;4980506;28;20268;-73
2023/01/05 05:12:10;;;;;;;6.97;1.63;;;9.80;99.90;;;;;;4995139;28;20183;-73
2023/01/05 05:14:35;;;;;;;7.80;1.50;;;9.80;99.90;;;;;;4984123;28;20178;-74
2023/01/05 05:17:01;;;;;;;4.37;1.43;;;9.80;99.90;;;;;;4980754;28;20216;-73
2023/01/05 05:19:26;;;;;;;6.67;1.80;;;9.80;99.90;;;;;;4979040;28;20246;-73
2023/01/05 05:21:52;;;;;;;6.33;1.53;;;9.80;99.90;;;;;;4981792;28;20724;-74
2023/01/05 05:24:18;;;;;;;7.33;1.60;;;9.80;99.90;;;;;;4982964;28;20169;-75
2023/01/05 05:26:43;;;;;;;9.67;2.40;;;9.70;99.90;;;;;;4981308;28;20185;-73
2023/01/05 05:29:09;;;;;;;8.53;2.10;;;9.70;99.90;;;;;;4980235;28;20564;-75
2023/01/05 05:31:35;;;;;;;5.87;1.73;;;9.70;99.90;;;;;;4981717;28;20692;-73
2023/01/05 05:34:01;;;;;;;10.63;2.30;;;9.70;99.90;;;;;;4981722;28;20206;-72
2023/01/05 05:36:27;;;;;;;4.90;1.90;;;9.70;99.90;;;;;;4979606;28;20190;-74
2023/01/05 05:38:52;;;;;;;6.30;1.70;;;9.70;99.90;;;;;;4976245;28;20228;-72
2023/01/05 05:41:18;;;;;;;6.77;2.10;;;9.70;99.90;;;;;;4978963;28;20222;-73
2023/01/05 05:43:44;;;;;;;9.17;1.80;;;9.70;99.90;;;;;;4985978;28;20202;-73
2023/01/05 05:46:09;;;;;;;6.93;1.80;;;9.70;99.90;;;;;;4985482;28;20224;-75
2023/01/05 05:48:35;;;;;;;7.63;1.90;;;9.70;99.90;;;;;;4988091;28;20254;-73
2023/01/05 05:51:00;;;;;;;7.83;1.73;;;9.70;99.90;;;;;;4981993;28;20236;-73
2023/01/05 05:53:26;;;;;;;8.00;1.47;;;9.70;99.90;;;;;;4986813;28;20232;-73
2023/01/05 05:55:51;;;;;;;6.40;1.70;;;9.70;99.90;;;;;;4985434;28;20711;-73
2023/01/05 05:58:18;;;;;;;5.10;1.40;;;9.80;99.90;;;;;;4986351;28;20296;-74
2023/01/05 06:00:44;;;;;;;5.40;1.57;;;9.80;99.90;;;;;;4984118;28;20225;-73
2023/01/05 06:03:10;;;;;;;2.30;1.10;;;9.80;99.90;;;;;;4989075;28;20193;-72
2023/01/05 06:05:35;;;;;;;9.63;2.07;;;9.70;99.90;;;;;;4984595;28;20579;-69
2023/01/05 06:08:01;;;;;;;3.40;1.33;;;9.70;99.90;;;;;;4987118;28;20246;-71
2023/01/05 06:10:27;;;;;;;5.40;1.33;;;9.60;99.90;;;;;;4984869;28;20225;-77
2023/01/05 06:12:53;;;;;;;2.90;0.80;;;9.40;99.90;;;;;;5001434;28;20221;-74
2023/01/05 06:15:19;;;;;;;2.40;1.10;;;9.30;99.90;;;;;;5005464;28;20193;-71
2023/01/05 06:17:47;;;;;;;1.83;1.00;;;9.30;99.90;;;;;;4986223;28;20804;-72
2023/01/05 06:20:13;;;;;;;2.47;0.90;;;9.20;99.90;;;;;;4985323;28;20225;-73
2023/01/05 06:22:40;;;;;;;3.23;1.17;;;9.20;99.90;;;;;;4985502;28;20216;-73
2023/01/05 06:25:06;;;;;;;3.60;1.13;;;9.30;99.90;;;;;;4987568;28;20560;-73
2023/01/05 06:27:31;;;;;;;2.73;1.00;;;9.30;99.90;;;;;;4986085;28;20230;-73
2023/01/05 06:29:57;;;;;;;3.40;1.27;;;9.40;99.90;;;;;;4982679;28;20233;-73
2023/01/05 06:32:22;;;;;;;4.03;1.20;;;9.40;99.90;;;;;;4983908;28;20213;-74
2023/01/05 06:34:48;;;;;;;4.17;1.33;;;9.40;99.90;;;;;;4986542;28;20213;-73
2023/01/05 06:37:14;;;;;;;5.67;1.60;;;9.40;99.90;;;;;;4986754;28;20213;-69
2023/01/05 06:39:39;;;;;;;5.23;1.10;;;9.40;99.90;;;;;;4982556;28;20249;-71
2023/01/05 06:42:05;;;;;;;2.33;1.40;;;9.50;99.90;;;;;;4990125;28;20269;-74
2023/01/05 06:44:31;;;;;;;3.93;1.37;;;9.50;99.90;;;;;;4983289;28;20214;-73
2023/01/05 06:46:56;;;;;;;3.57;1.20;;;9.50;99.90;;;;;;4997836;28;20225;-73
2023/01/05 06:49:22;;;;;;;2.20;0.87;;;9.50;99.90;;;;;;5003801;28;20303;-72
2023/01/05 06:51:47;;;;;;;6.70;1.30;;;9.50;99.90;;;;;;4980568;28;20600;-73
2023/01/05 06:54:13;;;;;;;1.77;1.00;;;9.50;99.90;;;;;;4985181;28;20232;-70
2023/01/05 06:56:39;;;;;;;2.70;1.00;;;9.50;99.90;;;;;;4988855;28;20189;-72
2023/01/05 06:59:04;;;;;;;3.10;0.97;;;9.50;99.90;;;;;;4988695;28;20756;-72
2023/01/05 07:01:30;;;;;;;3.43;1.20;;;9.50;99.90;;;;;;4991941;28;20713;-71
2023/01/05 07:03:55;;;;;;;3.10;0.90;;;9.50;99.90;;;;;;4986186;28;20217;-73
2023/01/05 07:06:21;;;;;;;2.37;1.10;;;9.50;99.90;;;;;;4987290;28;20189;-73
2023/01/05 07:08:47;;;;;;;1.67;0.70;;;9.50;99.90;;;;;;4991486;28;20189;-73
2023/01/05 07:11:12;;;;;;;1.67;0.67;;;9.50;99.90;;;;;;5002284;28;20254;-72
2023/01/05 07:13:38;;;;;;;2.80;0.90;;;9.50;99.90;;;;;;4990548;28;20685;-75
2023/01/05 07:16:04;;;;;;;4.00;1.00;;;9.60;99.90;;;;;;4989624;28;20217;-74
2023/01/05 07:18:30;;;;;;;1.57;0.53;;;9.60;99.90;;;;;;5000782;28;20656;-73
2023/01/05 07:20:59;;;;;;;3.90;1.00;;;9.60;99.90;;;;;;4985842;28;20316;-76
2023/01/05 07:23:24;;;;;;;2.40;0.50;;;9.60;99.90;;;;;;4990371;28;20245;-74
2023/01/05 07:25:50;;;;;;;1.57;0.80;;;9.60;99.90;;;;;;4984247;28;20241;-76
2023/01/05 07:28:15;;;;;;;4.00;1.30;;;9.60;99.90;;;;;;4991803;28;20201;-74
2023/01/05 07:30:41;;;;;;;3.97;0.83;;;9.60;99.90;;;;;;4988573;28;20622;-70
2023/01/05 07:33:07;;;;;;;2.27;1.23;;;9.60;99.90;;;;;;4985819;28;20185;-74
2023/01/05 07:35:33;;;;;;;1.47;0.60;;;9.60;99.90;;;;;;4991589;28;20217;-75
2023/01/05 07:37:58;;;;;;;2.47;1.00;;;9.60;99.90;;;;;;4986117;28;20276;-73
2023/01/05 07:40:24;;;;;;;1.90;1.23;;;9.60;99.90;;;;;;4985642;28;20222;-71
2023/01/05 07:42:53;;;;;;;1.17;0.60;;;9.50;99.90;;;;;;4991204;28;20217;-73
2023/01/05 07:45:19;;;;;;;1.87;0.53;;;9.50;99.90;;;;;;4986752;28;20277;-72
2023/01/05 07:47:45;;;;;;;2.37;0.90;;;9.50;99.90;;;;;;4986610;28;20259;-74
2023/01/05 07:50:11;;;;;;;1.43;0.70;;;9.50;99.90;;;;;;4986898;28;20712;-73
2023/01/05 07:52:38;;;;;;;2.93;1.57;;;9.50;99.90;;;;;;4985734;28;20258;-74
2023/01/05 07:55:04;;;;;;;2.53;0.80;;;9.50;99.90;;;;;;4989672;28;20693;-74
2023/01/05 07:57:30;;;;;;;1.10;0.57;;;9.40;99.90;;;;;;4988201;28;20715;-75
2023/01/05 07:59:56;;;;;;;2.60;0.90;;;9.40;99.90;;;;;;4982987;28;20292;-74
2023/01/05 08:02:22;;;;;;;1.10;0.50;;;9.40;99.90;;;;;;4991957;28;20209;-74
2023/01/05 08:04:47;;;;;;;1.33;0.70;;;9.40;99.90;;;;;;4986824;28;20221;-74
2023/01/05 08:07:14;;;;;;;4.37;0.73;;;9.40;99.90;;;;;;4999575;28;20205;-73
2023/01/05 08:12:26;;;;;;;3.10;0.70;;;9.40;99.90;;;;;;4988599;28;20283;-72
2023/01/05 08:14:51;;;;;;;1.83;0.73;;;9.50;99.90;;;;;;5000777;28;20524;-73
2023/01/05 08:17:17;;;;;;;1.97;0.77;;;9.50;99.90;;;;;;4988962;28;20209;-73
2023/01/05 08:19:43;;;;;;;1.60;0.67;;;9.40;99.90;;;;;;4983552;28;20288;-74
2023/01/05 08:22:08;;;;;;;0.80;0.60;;;9.50;99.90;;;;;;4989754;28;20216;-73
2023/01/05 08:24:34;;;;;;;1.23;0.43;;;9.40;99.90;;;;;;4988373;28;20213;-75
2023/01/05 08:26:59;;;;;;;0.60;0.40;;;9.50;99.90;;;;;;4983738;28;20642;-74
2023/01/05 08:29:25;;;;;;;2.27;0.90;;;9.50;99.90;;;;;;4990038;28;20593;-73
2023/01/05 08:31:51;;;;;;;1.53;0.70;;;9.50;99.90;;;;;;4985746;28;20637;-74
2023/01/05 08:34:16;;;;;;;3.23;0.63;;;9.50;99.90;;;;;;4985276;28;20680;-74
2023/01/05 08:36:42;;;;;;;3.60;0.50;;;9.60;99.90;;;;;;4990414;28;20562;-73
2023/01/05 08:39:10;;;;;;;2.53;0.87;;;9.60;99.90;;;;;;4985887;28;20266;-74
2023/01/05 08:41:37;;;;;;;0.63;0.60;;;9.60;99.90;;;;;;4984776;28;20222;-74
2023/01/05 08:44:06;;;;;;;1.63;0.70;;;9.70;99.90;;;;;;4988777;28;20705;-74
2023/01/05 08:46:34;;;;;;;2.10;1.00;;;9.70;99.90;;;;;;5000729;28;20202;-73
2023/01/05 08:49:02;;;;;;;2.40;1.10;;;9.70;99.90;;;;;;4990307;28;20214;-75
2023/01/05 08:51:29;;;;;;;1.90;0.73;;;9.60;99.90;;;;;;4987267;28;20198;-76
2023/01/05 08:53:55;;;;;;;2.57;1.00;;;9.50;99.90;;;;;;4982690;28;20257;-73
2023/01/05 08:56:23;;;;;;;1.97;1.10;;;9.60;99.90;;;;;;4990168;28;20681;-74
2023/01/05 08:58:49;;;;;;;1.53;0.73;;;9.60;99.90;;;;;;4987622;28;20221;-73
2023/01/05 09:01:17;;;;;;;1.13;0.60;;;9.60;99.90;;;;;;4983396;28;20213;-73
2023/01/05 09:03:43;;;;;;;2.67;1.00;;;9.70;99.90;;;;;;4981760;28;20221;-76
2023/01/05 09:06:10;;;;;;;2.20;1.10;;;9.80;99.90;;;;;;4985022;28;20190;-75
2023/01/05 09:08:37;;;;;;;1.70;0.70;;;9.90;99.90;;;;;;4987404;28;20296;-74
2023/01/05 09:11:10;;;;;;;3.43;0.97;;;10.00;99.90;;;;;;4986110;28;20791;-73
2023/01/05 09:13:37;;;;;;;2.73;0.93;;;10.00;99.90;;;;;;5003203;28;20206;-74
2023/01/05 09:16:07;;;;;;;2.23;0.87;;;9.90;99.90;;;;;;4989606;28;20237;-73
2023/01/05 09:18:34;;;;;;;1.70;0.80;;;10.00;99.90;;;;;;4987015;28;20256;-72
2023/01/05 09:20:59;;;;;;;1.70;0.80;;;10.00;99.90;;;;;;4979724;28;20210;-73
2023/01/05 09:23:25;;;;;;;1.73;0.67;;;10.10;99.90;;;;;;4989442;28;20636;-73
2023/01/05 09:25:51;;;;;;;3.53;0.97;;;10.20;99.90;;;;;;4984532;28;20230;-72
2023/01/05 09:28:16;;;;;;;2.27;0.80;;;10.30;99.90;;;;;;4984149;28;20208;-72
2023/01/05 09:30:42;;;;;;;2.87;0.83;;;10.40;99.90;;;;;;4988807;28;20223;-73
2023/01/05 09:33:08;;;;;;;3.03;0.97;;;10.60;99.90;;;;;;4999850;28;20182;-72
2023/01/05 09:35:33;;;;;;;2.33;1.00;;;10.70;99.90;;;;;;4988032;28;20309;-72
2023/01/05 09:37:59;;;;;;;1.67;0.60;;;10.80;99.90;;;;;;4986414;28;20294;-74
2023/01/05 09:40:26;;;;;;;1.43;0.73;;;10.70;99.90;;;;;;4984415;28;20640;-72
2023/01/05 09:42:51;;;;;;;3.43;1.30;;;10.70;99.90;;;;;;4986031;28;20209;-71
2023/01/05 09:45:25;;;;;;;4.47;1.50;;;10.60;99.90;;;;;;4984879;28;20562;-76
2023/01/05 09:47:54;;;;;;;1.43;1.03;;;10.60;99.90;;;;;;4982034;28;20573;-73
2023/01/05 09:50:23;;;;;;;1.00;0.70;;;10.60;99.90;;;;;;4986242;28;20213;-74
2023/01/05 09:52:52;;;;;;;3.47;0.60;;;10.30;99.90;;;;;;4982382;28;20590;-73
2023/01/05 09:55:20;;;;;;;4.00;1.40;;;10.30;99.90;;;;;;4986827;28;20209;-73
2023/01/05 09:57:53;;;;;;;3.30;1.10;;;10.30;99.90;;;;;;4988711;28;20205;-73
2023/01/05 10:00:21;;;;;;;5.43;1.30;;;10.20;99.90;;;;;;4999467;28;20202;-74
2023/01/05 10:02:51;;;;;;;1.73;0.80;;;10.20;99.90;;;;;;4983697;28;20190;-76
2023/01/05 10:05:17;;;;;;;4.50;1.00;;;10.10;99.90;;;;;;4987243;28;20202;-76
2023/01/05 10:07:50;;;;;;;6.67;1.37;;;10.10;99.90;;;;;;4982418;28;21023;-73
2023/01/05 10:10:30;;;;;;;2.37;1.10;;;10.00;99.90;;;;;;4986935;28;20201;-73
2023/01/05 10:13:01;;;;;;;2.77;1.20;;;10.00;99.90;;;;;;4985996;28;20202;-71
2023/01/05 10:15:30;;;;;;;2.33;1.10;;;10.00;99.90;;;;;;4984064;28;20185;-76
2023/01/05 10:17:56;;;;;;;8.60;1.90;;;10.00;99.90;;;;;;4989102;28;20647;-73
2023/01/05 10:20:38;;;;;;;6.33;1.13;;;10.00;99.90;;;;;;5001705;28;20348;-74
2023/01/05 10:23:43;;;;;;;6.00;2.40;;;10.00;99.90;;;;;;4985125;28;20205;-73
2023/01/05 10:26:35;;;;;;;2.27;1.53;;;10.00;99.90;;;;;;4984434;28;20214;-73
2023/01/05 10:29:25;;;;;;;6.53;2.00;;;10.00;99.90;;;;;;4981150;28;20297;-73
2023/01/05 10:32:36;;;;;;;6.23;2.27;;;10.00;99.90;;;;;;4984574;28;20714;-73
2023/01/05 10:35:33;;;;;;;1.90;0.77;;;10.00;99.90;;;;;;4981146;28;20209;-73
2023/01/05 10:38:13;;;;;;;5.40;0.87;;;10.00;99.90;;;;;;4985819;28;20222;-73
2023/01/05 10:40:49;;;;;;;3.10;1.27;;;10.00;99.90;;;;;;4982762;28;20220;-75
2023/01/05 10:43:48;;;;;;;3.80;1.20;;;10.00;99.90;;;;;;5004132;28;20224;-70
2023/01/05 10:46:15;;;;;;;2.87;1.27;;;10.00;99.90;;;;;;4997699;28;20214;-70
2023/01/05 10:48:41;;;;;;;3.70;1.27;;;10.00;99.90;;;;;;4996369;28;20221;-73
2023/01/05 10:51:08;;;;;;;4.53;1.20;;;10.00;99.90;;;;;;4988203;28;20224;-73
2023/01/05 10:53:39;;;;;;;3.53;1.20;;;10.00;99.90;;;;;;4983628;28;20213;-74
2023/01/05 10:56:12;;;;;;;8.57;2.37;;;10.00;99.90;;;;;;4984595;28;20650;-73
2023/01/05 10:58:44;;;;;;;7.67;1.73;;;10.00;99.90;;;;;;5008858;28;20217;-77
2023/01/05 11:01:29;;;;;;;5.13;2.00;;;10.00;99.90;;;;;;4982340;28;20222;-74
2023/01/05 11:04:04;;;;;;;5.03;1.73;;;10.00;99.90;;;;;;4985457;28;20220;-71
2023/01/05 11:06:32;;;;;;;6.60;1.47;;;10.00;99.90;;;;;;4986392;28;20247;-73
2023/01/05 11:09:20;;;;;;;5.43;1.67;;;10.00;99.90;;;;;;4980849;28;20650;-71
2023/01/05 11:12:01;;;;;;;3.50;1.37;;;10.10;99.90;;;;;;5000863;28;20220;-72
2023/01/05 11:14:31;;;;;;;4.93;1.40;;;10.00;99.90;;;;;;4996018;28;20225;-74
2023/01/05 11:17:04;;;;;;;5.37;1.50;;;10.00;99.90;;;;;;5001221;28;20209;-73
2023/01/05 11:19:34;;;;;;;4.33;1.20;;;10.00;99.90;;;;;;4986045;28;20217;-71
2023/01/05 11:22:00;;;;;;;4.07;1.10;;;10.00;99.90;;;;;;4980122;28;20649;-71
2023/01/05 11:24:27;;;;;;;2.80;1.13;;;9.90;99.90;;;;;;4985292;28;20178;-70
2023/01/05 11:26:58;;;;;;;5.67;2.10;;;9.90;99.90;;;;;;4984002;28;20174;-71
2023/01/05 11:29:24;;;;;;;3.03;1.40;;;9.90;99.90;;;;;;4982475;28;20288;-74
2023/01/05 11:32:04;;;;;;;5.40;1.57;;;9.90;99.90;;;;;;4987162;28;20213;-73
2023/01/05 11:34:48;;;;;;;4.27;1.53;;;10.00;99.90;;;;;;4980644;28;20214;-73
2023/01/05 11:37:27;;;;;;;5.27;1.60;;;10.00;99.90;;;;;;4984385;28;20205;-72
2023/01/05 11:39:59;;;;;;;7.10;1.80;;;10.00;99.90;;;;;;4982897;28;20233;-73
2023/01/05 11:42:24;;;;;;;4.60;1.37;;;10.00;99.90;;;;;;4987575;28;20186;-73
2023/01/05 11:45:00;;;;;;;8.23;1.40;;;10.00;99.90;;;;;;4988895;28;20770;-73
2023/01/05 11:47:53;;;;;;;4.60;1.60;;;10.00;99.90;;;;;;4988381;28;20213;-72
2023/01/05 11:50:29;;;;;;;6.87;1.50;;;10.00;99.90;;;;;;4988689;28;20257;-73
2023/01/05 11:52:57;;;;;;;6.03;1.30;;;10.00;99.90;;;;;;4988456;28;20221;-72
2023/01/05 11:55:28;;;;;;;4.83;1.50;;;10.00;99.90;;;;;;4987584;28;20633;-73
2023/01/05 11:58:09;;;;;;;5.03;1.30;;;10.00;99.90;;;;;;4989648;28;20206;-73
2023/01/05 12:00:46;;;;;;;4.07;1.30;;;9.90;99.90;;;;;;4988275;28;20221;-72
2023/01/05 12:03:46;;;;;;;4.70;1.60;;;9.90;99.90;;;;;;4985788;28;20223;-73
2023/01/05 12:06:40;;;;;;;3.90;1.57;;;9.80;99.90;;;;;;5010189;28;20589;-73
2023/01/05 12:09:11;;;;;;;7.13;1.40;;;9.80;99.90;;;;;;4987800;28;20177;-72
2023/01/05 12:11:51;;;;;;;5.27;1.70;;;9.90;99.90;;;;;;4988515;28;20252;-73
2023/01/05 12:14:45;;;;;;;5.63;1.30;;;9.90;99.90;;;;;;4990578;28;20213;-73
2023/01/05 12:17:14;;;;;;;3.23;1.30;;;9.90;99.90;;;;;;4988056;28;20958;-73
2023/01/05 12:20:06;;;;;;;4.97;1.83;;;9.90;99.90;;;;;;4988699;28;20218;-72
2023/01/05 12:22:50;;;;;;;2.67;1.17;;;10.00;99.90;;;;;;4990685;28;20212;-73
2023/01/05 12:25:35;;;;;;;6.23;2.00;;;10.00;99.90;;;;;;4990977;28;20256;-72
2023/01/05 12:28:34;;;;;;;6.00;1.57;;;10.00;99.90;;;;;;4988278;28;20689;-74
2023/01/05 12:31:06;;;;;;;2.27;0.80;;;10.00;99.90;;;;;;4985131;28;20762;-76
2023/01/05 12:33:50;;;;;;;3.13;1.80;;;10.00;99.90;;;;;;4989677;28;20715;-72
2023/01/05 12:36:18;;;;;;;6.17;1.67;;;10.00;99.90;;;;;;4985688;28;20260;-73
2023/01/05 12:38:47;;;;;;;7.03;1.43;;;10.00;99.90;;;;;;4986786;28;20192;-73
2023/01/05 12:41:20;;;;;;;6.77;1.40;;;10.00;99.90;;;;;;4986361;28;20304;-73
2023/01/05 12:44:17;;;;;;;4.30;1.27;;;9.90;99.90;;;;;;4996715;28;20771;-73
2023/01/05 12:47:01;;;;;;;4.93;1.03;;;9.90;99.90;;;;;;4986648;28;20328;-73
2023/01/05 12:49:33;;;;;;;4.43;1.20;;;9.90;99.90;;;;;;4983964;28;20224;-73
2023/01/05 12:52:09;;;;;;;4.60;1.10;;;9.90;99.90;;;;;;5003260;28;20268;-73
2023/01/05 12:54:44;;;;;;;4.90;1.23;;;9.90;99.90;;;;;;4987597;28;20293;-72
2023/01/05 12:57:17;;;;;;;4.33;1.03;;;9.90;99.90;;;;;;4984173;28;20220;-74
2023/01/05 13:00:06;;;;;;;4.07;1.33;;;10.00;99.90;;;;;;4989475;28;20283;-74
2023/01/05 13:02:36;;;;;;;3.63;1.80;;;9.90;99.90;;;;;;4985005;28;20206;-74
2023/01/05 13:05:12;;;;;;;8.03;1.87;;;9.90;99.90;;;;;;4983841;28;20209;-74
2023/01/05 13:07:55;;;;;;;2.93;1.27;;;10.00;99.90;;;;;;4984606;28;20849;-76
2023/01/05 13:10:53;;;;;;;2.73;1.37;;;9.90;99.90;;;;;;4983786;28;20224;-73
2023/01/05 13:13:23;;;;;;;5.87;2.23;;;9.90;99.90;;;;;;4987832;28;20209;-71
2023/01/05 13:15:59;;;;;;;6.40;1.50;;;9.90;99.90;;;;;;4983810;28;20445;-74
2023/01/05 13:18:26;;;;;;;4.17;1.83;;;9.90;99.90;;;;;;4982984;28;20192;-72
2023/01/05 13:20:58;;;;;;;3.60;1.10;;;9.80;99.90;;;;;;4984659;28;20591;-74
2023/01/05 13:23:29;;;;;;;4.17;1.90;;;9.80;99.90;;;;;;4984717;28;20291;-73
2023/01/05 13:26:13;;;;;;;6.33;2.83;;;9.80;99.90;;;;;;4986677;28;20225;-73
2023/01/05 13:28:38;;;;;;;4.73;1.50;;;9.90;99.90;;;;;;4985081;28;20243;-74
2023/01/05 13:31:24;;;;;;;2.93;1.37;;;9.80;99.90;;;;;;4985779;28;20213;-74
2023/01/05 13:33:55;;;;;;;1.33;0.90;;;9.80;99.90;;;;;;5003780;28;20724;-72
2023/01/05 13:36:41;;;;;;;5.87;2.57;;;9.80;99.90;;;;;;4984951;28;20226;-74
2023/01/05 13:39:37;;;;;;;3.00;1.00;;;9.80;99.90;;;;;;5015453;28;20182;-74
2023/01/05 13:42:36;;;;;;;3.17;1.23;;;9.70;99.90;;;;;;4989117;28;20220;-71
2023/01/05 13:45:38;;;;;;;3.93;1.73;;;9.70;99.90;;;;;;4988628;28;20210;-72